ADDS METAR Data INFO
IDs: Format: Raw Decoded Include TAF

Data at: 2228 UTC 22 Aug 2017

KELP 222151Z 10004KT 10SM FEW070TCU SCT250 33/15 A3011 RMK AO2 LTG DSNT SE SLP117 CB DSNT E-SE TCU NE AND NW T03330150
KELP 222051Z 04005KT 10SM FEW075 SCT250 34/16 A3013 RMK AO2 SLP123 CB DSNT SE TCU DSNT E S AND SW T03440161 57020
KELP 221951Z 04005KT 10SM FEW070 SCT250 33/17 A3015 RMK AO2 SLP131 CB DSNT NE AND SE TCU DSNT E AND S T03280167
KELP 221851Z 00000KT 10SM FEW070 SCT250 32/16 A3018 RMK AO2 SLP140 CB DSNT NE AND SE TCU DSNT N AND E-S T03170161
KELP 221751Z 34004KT 10SM FEW065 SCT250 31/18 A3020 RMK AO2 SLP146 CB DSNT SE TCU DSNT N NE-E AND S T03110178 10311 20211 50002
KELP 221651Z 31003KT 10SM FEW060 SCT250 29/18 A3021 RMK AO2 SLP150 TCU DSNT NE AND SE T02890183
KELP 221551Z 00000KT 10SM FEW060 SCT220 27/20 A3021 RMK AO2 SLP153 T02670200
KELP 221451Z 00000KT 10SM FEW060 SCT220 26/19 A3019 RMK AO2 SLP150 T02560189 51017
KELP 221351Z 34005KT 10SM FEW220 23/19 A3018 RMK AO2 SLP147 T02280194
KELP 221251Z 01004KT 10SM FEW060 FEW220 22/20 A3016 RMK AO2 SLP139 T02220200
KELP 221151Z 06004KT 10SM FEW200 22/20 A3013 RMK AO2 SLP131 T02170200 10261 20217 55000
KELP 221051Z 01004KT 10SM CLR 23/20 A3013 RMK AO2 SLP129 T02280200
KELP 220951Z 36003KT 10SM CLR 23/21 A3013 RMK AO2 SLP129 T02330206
KELP 220851Z 00000KT 10SM FEW250 23/20 A3014 RMK AO2 SLP131 T02280200 55000
KELP 220751Z 10004KT 10SM CLR 23/20 A3013 RMK AO2 SLP132 T02330200
KELP 220651Z 00000KT 10SM FEW250 24/20 A3013 RMK AO2 SLP133 T02440200 403110194
KELP 220551Z 04004KT 10SM CLR 26/19 A3014 RMK AO2 SLP133 T02610189 10306 20244 50007
KELP 220451Z 34003KT 10SM CLR 27/18 A3014 RMK AO2 SLP132 T02720183
KELP 220351Z 29003KT 10SM CLR 27/18 A3013 RMK AO2 SLP133 T02720183
KELP 220251Z 11003KT 10SM CLR 27/19 A3011 RMK AO2 SLP127 T02670194 53009
KELP 220151Z 14003KT 10SM FEW060 FEW250 28/18 A3009 RMK AO2 SLP119 CB DSNT NE-SE-SW T02830178
KELP 220051Z 11003KT 10SM FEW060TCU FEW250 30/17 A3008 RMK AO2 SLP116 CB DSNT N-E-S TCU NW T03000167
KELP 212351Z 00000KT 10SM SCT060 SCT250 30/17 A3008 RMK AO2 SLP115 CB DSNT N AND E-S TCU DSNT NE T03000167 10311 20244 58015
KELP 212251Z 00000KT 10SM SCT060TCU SCT250 29/17 A3011 RMK AO2 SLP126 CB DSNT N AND SE TCU NE-E T02940167
KELP 212151Z 30004KT 10SM SCT040 SCT250 30/16 A3012 RMK AO2 SLP127 CB DSNT N AND E T03000161
KELP 212051Z 12005KT 10SM SCT040 SCT250 29/17 A3013 RMK AO2 SLP133 T02890172 58010
KELP 211951Z VRB03KT 10SM FEW040 FEW250 28/17 A3014 RMK AO2 SLP137 T02780172
KELP 211851Z 13004KT 10SM FEW035 FEW250 26/18 A3016 RMK AO2 SLP143 CB DSNT NE T02610183
KELP 211751Z 16005KT 10SM FEW035 FEW250 24/19 A3016 RMK AO2 SLP149 T02440189 10250 20194 50000
KELP 211651Z 16003KT 10SM FEW030 FEW180 24/18 A3017 RMK AO2 SLP152 OCNL CLDS TPG MTNS NW T02440183
KELP 211551Z 14005KT 10SM FEW027 FEW180 23/18 A3017 RMK AO2 SLP150 OCNL CLDS TPG MTNS NW T02280183
KELP 211451Z 17005KT 10SM FEW025 FEW160 22/18 A3016 RMK AO2 SLP149 OCNL CLDS TPG MTNS NW T02170178 51013
KELP 211351Z 00000KT 10SM FEW015 FEW040 SCT160 21/18 A3016 RMK AO2 SLP148 MTNS PTLY OBSCD NW T02060183
KELP 211251Z 00000KT 10SM FEW014 SCT035 SCT150 20/19 A3014 RMK AO2 SLP141 MTNS PTLY OBSCD SW-NW T02000189
KELP 211151Z 15005KT 10SM FEW009 SCT021 SCT150 20/19 A3012 RMK AO2 SLP136 CLDS TPG MTNS SW-NW 60001 70031 T02000189 10222 20194 55001
KELP 211138Z 13006KT 10SM FEW009 SCT021 BKN140 20/18 A3012 RMK AO2 CLDS TPG MTNS SW-NW T02000183
KELP 211122Z 15006KT 10SM FEW009 BKN021 BKN130 20/18 A3012 RMK AO2 CLDS TPG MTNS SW-NW T02000183
KELP 211051Z 16003KT 10SM FEW013 SCT065 BKN130 19/19 A3011 RMK AO2 RAE13 SLP132 MTNS PTLY OBSCD SW P0000 T01940189